Time;durP1;ratioP1;P1;durP2;ratioP2;P2;SDS_P1;SDS_P2;PMS_P1;PMS_P2;Temp;Humidity;BMP_temperature;BMP_pressure;BME280_temperature;BME280_humidity;BME280_pressure;Samples;Min_cycle;Max_cycle;Signal;HPM_P1;HPM_P2
2022/05/17 00:00:33;;;;;;;3.30;1.83;;;;;;;18.49;47.87;101451.91;2080690;28;20540;-64
2022/05/17 00:01:34;;;;;;;4.23;1.90;;;;;;;18.44;48.27;101450.50;2079917;28;20288;-64
2022/05/17 00:02:34;;;;;;;5.33;2.10;;;;;;;18.38;48.37;101443.16;2080281;28;20212;-64
2022/05/17 00:03:35;;;;;;;6.60;2.03;;;;;;;18.38;48.24;101449.53;2079386;28;20188;-64
2022/05/17 00:04:35;;;;;;;5.33;2.30;;;;;;;18.37;48.21;101450.03;2079948;28;20181;-64
2022/05/17 00:05:36;;;;;;;4.63;1.90;;;;;;;16.95;48.11;101243.28;2080247;28;20236;-64
2022/05/17 00:06:37;;;;;;;4.97;2.10;;;;;;;18.12;48.31;101441.84;2080585;28;20690;-64
2022/05/17 00:07:37;;;;;;;4.80;2.13;;;;;;;18.09;48.71;101441.53;2080655;28;20181;-63
2022/05/17 00:08:39;;;;;;;2.50;1.80;;;;;;;18.08;48.70;101438.41;2080721;28;20654;-64
2022/05/17 00:09:39;;;;;;;4.93;2.03;;;;;;;18.02;48.74;101444.63;2080375;28;20184;-64
2022/05/17 00:10:41;;;;;;;5.80;2.33;;;;;;;17.95;49.18;101438.53;2080620;28;20424;-64
2022/05/17 00:11:43;;;;;;;5.50;1.93;;;;;;;17.83;49.26;101425.44;2080742;28;20181;-64
2022/05/17 00:12:44;;;;;;;4.47;2.07;;;;;;;17.88;49.22;101440.84;2079587;28;20868;-63
2022/05/17 00:13:44;;;;;;;4.43;1.93;;;;;;;17.83;49.44;101433.84;2079796;28;20495;-63
2022/05/17 00:14:45;;;;;;;4.10;1.87;;;;;;;17.79;49.52;101441.59;2080315;28;20615;-63
2022/05/17 00:15:48;;;;;;;5.90;2.10;;;;;;;17.79;49.75;101433.19;2080970;28;20570;-63
2022/05/17 00:16:48;;;;;;;4.80;2.50;;;;;;;17.41;49.69;101389.91;2082015;28;20242;-63
2022/05/17 00:17:52;;;;;;;4.27;2.10;;;;;;;17.71;50.05;101434.72;2082156;28;20426;-63
2022/05/17 00:18:52;;;;;;;4.53;2.17;;;;;;;17.72;49.72;101432.69;2082046;28;20217;-63
2022/05/17 00:19:53;;;;;;;6.47;2.50;;;;;;;17.67;50.15;101437.66;2081878;28;20423;-63
2022/05/17 00:20:53;;;;;;;5.67;2.20;;;;;;;17.64;49.92;101435.00;2082018;28;20642;-63
2022/05/17 00:21:55;;;;;;;4.97;2.10;;;;;;;17.68;50.09;101435.66;2082077;28;20181;-63
2022/05/17 00:22:55;;;;;;;8.73;2.10;;;;;;;17.70;50.19;101438.75;2080869;28;20192;-63
2022/05/17 00:23:56;;;;;;;4.50;2.00;;;;;;;17.72;49.91;101441.09;2081341;28;20424;-63
2022/05/17 00:24:56;;;;;;;5.53;2.30;;;;;;;17.71;50.22;101437.50;2081538;28;20218;-63
2022/05/17 00:25:57;;;;;;;5.30;1.93;;;;;;;17.71;50.29;101433.94;2081762;28;20241;-63
2022/05/17 00:26:57;;;;;;;5.30;2.10;;;;;;;17.72;50.25;101438.31;2082030;28;20184;-64
2022/05/17 00:27:59;;;;;;;7.97;2.27;;;;;;;17.70;50.05;101446.41;2082093;28;20207;-64
2022/05/17 00:29:01;;;;;;;6.90;2.07;;;;;;;17.69;50.42;101437.19;2081816;28;20173;-64
2022/05/17 00:30:04;;;;;;;5.10;2.20;;;;;;;17.68;50.41;101432.84;2082160;28;20574;-64
2022/05/17 00:31:09;;;;;;;3.87;2.00;;;;;;;17.67;50.39;101429.25;2082190;28;20431;-65
2022/05/17 00:32:09;;;;;;;4.23;2.10;;;;;;;16.77;50.00;101290.78;2081921;28;20423;-64
2022/05/17 00:33:09;;;;;;;4.73;2.10;;;;;;;17.63;49.95;101431.41;2081201;28;20430;-64
2022/05/17 00:34:10;;;;;;;4.40;2.10;;;;;;;17.14;50.25;101354.91;2080931;28;20209;-63
2022/05/17 00:35:10;;;;;;;3.57;1.90;;;;;;;17.60;50.27;101428.00;2081376;28;20174;-65
2022/05/17 00:36:11;;;;;;;4.43;2.23;;;;;;;17.50;50.47;101426.38;2081868;28;20207;-66
2022/05/17 00:37:15;;;;;;;3.67;2.13;;;;;;;17.50;50.46;101432.00;2081938;28;20181;-65
2022/05/17 00:38:17;;;;;;;5.53;2.40;;;;;;;17.47;50.86;101427.28;2080764;28;20636;-66
2022/05/17 00:39:17;;;;;;;4.33;2.30;;;;;;;17.44;50.58;101450.66;2081696;28;20446;-66
2022/05/17 00:40:18;;;;;;;5.10;2.50;;;;;;;16.55;50.75;101301.25;2081956;28;20516;-66
2022/05/17 00:41:19;;;;;;;6.47;2.40;;;;;;;17.38;50.58;101433.63;2081978;28;20179;-65
2022/05/17 00:42:19;;;;;;;5.80;2.57;;;;;;;17.38;50.53;101428.00;2081886;28;20185;-66
2022/05/17 00:44:52;;;;;;;5.10;2.10;;;;;;;17.32;50.68;101433.41;2081585;28;20569;-66
2022/05/17 00:45:53;;;;;;;6.67;2.33;;;;;;;17.30;51.31;101432.31;2081378;28;20423;-66
2022/05/17 00:47:06;;;;;;;6.47;2.10;;;;;;;16.66;51.20;101330.34;2081773;28;20651;-66
2022/05/17 00:48:08;;;;;;;6.00;2.80;;;;;;;16.87;51.17;101365.19;2082060;28;20496;-66
2022/05/17 00:49:12;;;;;;;5.53;2.50;;;;;;;17.34;51.29;101428.16;2081684;28;20453;-66
2022/05/17 00:50:30;;;;;;;4.57;2.50;;;;;;;17.34;51.33;101438.56;2081680;28;20492;-66
2022/05/17 00:51:31;;;;;;;4.03;2.33;;;;;;;17.31;51.48;101429.06;2081955;28;20964;-65
2022/05/17 00:52:50;;;;;;;8.30;3.23;;;;;;;17.30;51.28;101429.50;2081680;28;20458;-66
2022/05/17 00:53:51;;;;;;;5.17;2.00;;;;;;;17.34;51.54;101433.75;2080088;28;20533;-66
2022/05/17 00:54:55;;;;;;;7.67;2.67;;;;;;;17.39;51.29;101438.00;2080766;28;20423;-65
2022/05/17 00:55:58;;;;;;;9.30;2.13;;;;;;;17.42;51.34;101422.28;2081381;28;20206;-65
2022/05/17 00:57:28;;;;;;;5.37;2.07;;;;;;;17.43;51.30;101421.84;2081724;28;20502;-65
2022/05/17 00:58:34;;;;;;;9.17;2.57;;;;;;;17.46;51.23;101426.53;2081928;28;20426;-66
2022/05/17 00:59:37;;;;;;;8.70;2.50;;;;;;;17.45;51.54;101424.94;2081580;28;20400;-66
2022/05/17 01:00:49;;;;;;;11.23;2.70;;;;;;;17.46;51.19;101431.34;2081736;28;20423;-65
2022/05/17 01:01:50;;;;;;;10.67;3.40;;;;;;;17.42;51.38;101429.44;2081944;28;20982;-65
2022/05/17 01:02:59;;;;;;;13.17;4.10;;;;;;;17.36;51.56;101413.69;2081155;28;20423;-65
2022/05/17 01:04:16;;;;;;;12.67;3.50;;;;;;;17.41;51.67;101426.34;2080858;28;20483;-66
2022/05/17 01:05:19;;;;;;;13.97;3.50;;;;;;;16.53;51.76;101296.09;2081148;28;20760;-65
2022/05/17 01:06:21;;;;;;;11.13;3.03;;;;;;;17.33;51.61;101426.59;2081774;28;20505;-66
2022/05/17 01:07:25;;;;;;;14.60;3.33;;;;;;;16.60;51.53;101298.59;2081536;28;20862;-66
2022/05/17 01:08:27;;;;;;;14.70;3.83;;;;;;;17.39;51.36;101415.59;2081789;28;20457;-66
2022/05/17 01:09:28;;;;;;;12.40;3.40;;;;;;;17.23;51.31;101391.38;2081537;28;20438;-66
2022/05/17 01:10:29;;;;;;;18.87;3.77;;;;;;;17.45;51.58;101419.34;2081764;28;20434;-66
2022/05/17 01:11:31;;;;;;;12.10;3.33;;;;;;;17.46;51.43;101411.72;2081782;28;20688;-66
2022/05/17 01:12:34;;;;;;;17.77;4.13;;;;;;;17.47;51.39;101424.50;2081825;28;20462;-66
2022/05/17 01:14:58;;;;;;;14.03;3.67;;;;;;;17.48;51.37;101415.63;2081013;28;20437;-65
2022/05/17 01:15:59;;;;;;;12.73;3.60;;;;;;;17.47;51.31;101419.69;2081195;28;20470;-66
2022/05/17 01:17:00;;;;;;;10.03;3.20;;;;;;;17.52;51.55;101421.88;2081645;28;20419;-66
2022/05/17 01:18:03;;;;;;;10.90;3.13;;;;;;;17.54;51.22;101419.38;2081607;28;20187;-65
2022/05/17 01:19:06;;;;;;;11.67;3.37;;;;;;;17.49;51.36;101414.38;2081442;28;20926;-66
2022/05/17 01:20:11;;;;;;;10.57;3.10;;;;;;;17.52;51.60;101413.47;2081549;28;20425;-65
2022/05/17 01:21:12;;;;;;;6.60;2.87;;;;;;;17.52;51.65;101411.44;2081682;28;20420;-66
2022/05/17 01:22:13;;;;;;;13.90;3.57;;;;;;;17.52;51.43;101405.06;2081403;28;20415;-64
2022/05/17 01:23:13;;;;;;;12.63;3.30;;;;;;;17.51;51.80;101411.88;2080754;28;20561;-64
2022/05/17 01:24:15;;;;;;;7.37;2.87;;;;;;;17.53;51.88;101409.44;2080713;28;20211;-64
2022/05/17 01:25:16;;;;;;;9.87;3.03;;;;;;;17.54;51.53;101410.97;2080664;28;20974;-64
2022/05/17 01:26:20;;;;;;;5.40;2.50;;;;;;;17.52;51.66;101407.09;2081085;28;20164;-64
2022/05/17 01:27:24;;;;;;;10.43;3.00;;;;;;;17.52;51.22;101415.50;2081657;28;20229;-64
2022/05/17 01:28:29;;;;;;;9.47;2.77;;;;;;;17.56;51.45;101407.72;2081575;28;20429;-63
2022/05/17 01:29:37;;;;;;;11.47;2.90;;;;;;;16.66;51.10;101260.41;2081278;28;20431;-64
2022/05/17 01:30:39;;;;;;;6.20;2.63;;;;;;;17.58;51.19;101397.63;2081588;28;20406;-63
2022/05/17 01:31:41;;;;;;;4.93;2.60;;;;;;;17.58;51.07;101406.78;2081530;28;21145;-64
2022/05/17 01:32:41;;;;;;;6.27;2.40;;;;;;;17.60;51.05;101400.72;2081149;28;20504;-63
2022/05/17 01:33:42;;;;;;;4.93;2.80;;;;;;;17.69;50.78;101406.38;2080808;28;20431;-64
2022/05/17 01:34:43;;;;;;;7.50;2.70;;;;;;;17.72;50.92;101402.66;2081108;28;20185;-64
2022/05/17 01:35:44;;;;;;;7.73;2.80;;;;;;;17.64;50.94;101401.38;2080522;28;20617;-64
2022/05/17 01:36:45;;;;;;;11.40;3.63;;;;;;;16.93;51.29;101304.53;2081406;28;20499;-64
2022/05/17 01:37:50;;;;;;;8.03;3.20;;;;;;;17.58;51.32;101403.97;2081667;28;20417;-64
2022/05/17 01:38:51;;;;;;;10.07;3.20;;;;;;;17.48;51.31;101387.59;2081235;28;20175;-64
2022/05/17 01:39:51;;;;;;;6.83;3.10;;;;;;;17.58;51.36;101431.25;2081354;28;20478;-64
2022/05/17 01:40:52;;;;;;;8.90;2.90;;;;;;;17.17;51.27;101347.59;2081412;28;20424;-64
2022/05/17 01:41:52;;;;;;;7.53;2.60;;;;;;;17.56;51.46;101405.69;2081607;28;20604;-64
2022/05/17 01:42:53;;;;;;;6.30;2.30;;;;;;;17.59;51.44;101401.97;2080768;28;20258;-64
2022/05/17 01:43:53;;;;;;;6.63;2.57;;;;;;;17.45;51.33;101382.91;2080766;28;20264;-64
2022/05/17 01:44:54;;;;;;;8.17;3.03;;;;;;;17.45;51.38;101387.75;2080988;28;20176;-64
2022/05/17 01:45:55;;;;;;;6.57;2.80;;;;;;;17.60;51.54;101414.75;2080702;28;20177;-64
2022/05/17 01:46:55;;;;;;;6.27;2.60;;;;;;;17.60;51.19;101400.72;2081484;28;20209;-64
2022/05/17 01:47:56;;;;;;;5.27;2.80;;;;;;;17.60;51.35;101403.53;2081571;28;20926;-64
2022/05/17 01:48:57;;;;;;;6.67;2.53;;;;;;;17.52;51.33;101393.84;2081147;28;20662;-64
2022/05/17 01:49:58;;;;;;;7.53;2.47;;;;;;;17.57;51.39;101398.06;2081244;28;20670;-63
2022/05/17 01:50:58;;;;;;;5.40;2.63;;;;;;;16.67;51.33;101273.19;2081374;28;20854;-64
2022/05/17 01:51:59;;;;;;;8.93;2.90;;;;;;;16.78;51.53;101284.72;2081532;28;20242;-64
2022/05/17 01:53:00;;;;;;;5.33;2.93;;;;;;;17.54;51.66;101408.19;2080820;28;20182;-64
2022/05/17 01:54:00;;;;;;;5.17;2.70;;;;;;;17.52;51.79;101403.03;2080678;28;20278;-64
2022/05/17 01:55:01;;;;;;;10.43;3.03;;;;;;;16.58;51.79;101260.38;2081068;28;20264;-63
2022/05/17 01:56:03;;;;;;;5.23;2.50;;;;;;;17.48;51.93;101398.81;2080301;28;20256;-64
2022/05/17 01:57:04;;;;;;;13.83;3.47;;;;;;;16.65;51.87;101284.03;2081396;28;20596;-63
2022/05/17 01:58:05;;;;;;;11.87;3.07;;;;;;;17.40;51.90;101403.13;2081246;28;20445;-64
2022/05/17 01:59:06;;;;;;;13.43;3.20;;;;;;;17.41;52.08;101393.50;2081270;28;20490;-63
2022/05/17 02:00:10;;;;;;;12.07;3.50;;;;;;;17.36;52.04;101396.88;2081509;28;20423;-64
2022/05/17 02:01:11;;;;;;;25.50;5.77;;;;;;;17.14;52.33;101374.50;2081232;28;20242;-64
2022/05/17 02:02:11;;;;;;;11.77;3.87;;;;;;;17.02;52.15;101355.00;2081288;28;20514;-64
2022/05/17 02:03:12;;;;;;;13.27;3.80;;;;;;;17.23;52.35;101394.16;2080666;28;20417;-63
2022/05/17 02:04:13;;;;;;;19.77;4.80;;;;;;;17.17;52.12;101395.97;2080196;28;20177;-63
2022/05/17 02:05:13;;;;;;;35.23;5.40;;;;;;;17.18;52.27;101402.38;2080551;28;20643;-64
2022/05/17 02:06:14;;;;;;;34.93;5.30;;;;;;;17.20;51.98;101403.47;2081035;28;20559;-64
2022/05/17 02:07:14;;;;;;;17.80;4.50;;;;;;;17.13;52.22;101403.78;2081221;28;20218;-63
2022/05/17 02:08:15;;;;;;;18.57;3.70;;;;;;;16.90;52.17;101372.69;2081210;28;20176;-64
2022/05/17 02:09:15;;;;;;;17.90;3.90;;;;;;;17.02;52.35;101386.59;2081233;28;20176;-63
2022/05/17 02:10:18;;;;;;;22.10;5.70;;;;;;;17.16;52.31;101400.03;2081366;28;20256;-63
2022/05/17 02:11:19;;;;;;;17.97;4.57;;;;;;;17.16;52.30;101402.84;2081216;28;20263;-64
2022/05/17 02:12:19;;;;;;;20.57;4.90;;;;;;;17.16;52.21;101400.03;2081192;28;20952;-64
2022/05/17 02:13:20;;;;;;;17.03;4.53;;;;;;;16.62;52.46;101334.53;2080291;28;20173;-63
2022/05/17 02:14:20;;;;;;;14.17;4.23;;;;;;;17.18;52.31;101402.38;2080479;28;20532;-64
2022/05/17 02:15:21;;;;;;;14.10;3.83;;;;;;;17.19;51.97;101395.53;2080775;28;20177;-64
2022/05/17 02:16:22;;;;;;;21.57;4.50;;;;;;;17.18;51.78;101385.56;2081024;28;20660;-64
2022/05/17 02:17:22;;;;;;;16.67;3.80;;;;;;;17.17;52.23;101398.78;2080802;28;20201;-65
2022/05/17 02:18:23;;;;;;;11.90;4.00;;;;;;;17.19;52.07;101399.13;2081156;28;20674;-65
2022/05/17 02:19:23;;;;;;;16.70;3.93;;;;;;;17.19;52.22;101387.91;2080974;28;20646;-65
2022/05/17 02:20:24;;;;;;;13.80;3.97;;;;;;;17.20;52.24;101392.28;2081385;28;20271;-65
2022/05/17 02:21:25;;;;;;;15.83;3.53;;;;;;;17.21;52.50;101390.28;2081010;28;20263;-65
2022/05/17 02:22:25;;;;;;;18.80;4.30;;;;;;;17.21;52.63;101388.22;2080947;28;20188;-65
2022/05/17 02:23:26;;;;;;;13.60;3.60;;;;;;;17.26;52.46;101395.28;2079904;28;20698;-66
2022/05/17 02:24:29;;;;;;;19.20;4.53;;;;;;;17.23;52.47;101382.19;2080505;28;20189;-66
2022/05/17 02:25:30;;;;;;;14.93;4.07;;;;;;;17.06;52.67;101352.84;2080538;28;20187;-65
2022/05/17 02:26:31;;;;;;;13.67;4.20;;;;;;;17.15;52.83;101381.66;2081129;28;20408;-65
2022/05/17 02:27:32;;;;;;;14.87;4.53;;;;;;;17.01;52.85;101389.84;2080815;28;20211;-66
2022/05/17 02:28:33;;;;;;;18.10;4.33;;;;;;;16.95;53.11;101388.88;2081100;28;20186;-66
2022/05/17 02:29:33;;;;;;;10.43;3.17;;;;;;;17.01;53.18;101387.03;2080907;28;20772;-66
2022/05/17 02:30:34;;;;;;;15.93;4.27;;;;;;;16.37;53.08;101279.47;2081198;28;20263;-65
2022/05/17 02:31:35;;;;;;;13.73;4.20;;;;;;;17.08;52.94;101387.56;2080936;28;20184;-65
2022/05/17 02:32:35;;;;;;;10.87;3.00;;;;;;;17.13;52.45;101397.38;2081139;28;20199;-65
2022/05/17 02:33:36;;;;;;;8.80;3.50;;;;;;;17.13;52.66;101389.75;2079760;28;20174;-65
2022/05/17 02:34:36;;;;;;;14.10;3.53;;;;;;;17.03;52.33;101373.34;2080700;28;20228;-65
2022/05/17 02:35:38;;;;;;;7.10;2.97;;;;;;;17.15;52.08;101384.47;2080385;28;20748;-65
2022/05/17 02:36:38;;;;;;;9.00;3.03;;;;;;;17.17;52.34;101389.63;2081070;28;20239;-65
2022/05/17 02:37:40;;;;;;;7.67;3.27;;;;;;;17.19;52.29;101381.53;2080388;28;20419;-65
2022/05/17 02:38:40;;;;;;;12.67;3.83;;;;;;;16.65;52.19;101294.47;2080314;28;20189;-65
2022/05/17 02:39:42;;;;;;;11.70;3.30;;;;;;;17.25;52.36;101383.28;2080747;28;20427;-65
2022/05/17 02:40:43;;;;;;;8.40;2.80;;;;;;;17.27;52.05;101389.19;2080996;28;20188;-66
2022/05/17 02:41:43;;;;;;;9.60;2.83;;;;;;;17.29;52.19;101388.72;2080995;28;20946;-66
2022/05/17 02:42:44;;;;;;;8.40;2.50;;;;;;;17.30;52.22;101387.50;2080336;28;20185;-65
2022/05/17 02:43:45;;;;;;;9.13;2.80;;;;;;;16.43;52.31;101266.50;2080272;28;20176;-66
2022/05/17 02:44:46;;;;;;;8.10;2.57;;;;;;;17.22;52.26;101386.22;2080606;28;20193;-65
2022/05/17 02:45:47;;;;;;;6.70;2.60;;;;;;;17.22;52.36;101384.19;2080580;28;20435;-65
2022/05/17 02:46:47;;;;;;;9.27;3.40;;;;;;;17.26;52.12;101384.06;2080927;28;20314;-66
2022/05/17 02:47:48;;;;;;;6.83;2.67;;;;;;;17.31;52.29;101391.88;2080776;28;20725;-65
2022/05/17 02:48:49;;;;;;;10.77;2.87;;;;;;;16.96;52.10;101334.44;2080884;28;20204;-65
2022/05/17 02:49:49;;;;;;;6.27;2.77;;;;;;;17.32;52.41;101385.03;2080965;28;20178;-66
2022/05/17 02:50:49;;;;;;;8.43;2.80;;;;;;;17.33;52.24;101384.56;2080892;28;20182;-65
2022/05/17 02:51:50;;;;;;;9.53;3.07;;;;;;;17.35;52.22;101390.47;2080165;28;20200;-65
2022/05/17 02:52:50;;;;;;;15.53;4.27;;;;;;;17.36;52.74;101391.28;2079546;28;20176;-65
2022/05/17 02:53:51;;;;;;;9.30;3.40;;;;;;;17.37;52.64;101393.59;2080199;28;20195;-66
2022/05/17 02:54:51;;;;;;;12.43;3.30;;;;;;;16.45;52.76;101241.63;2080586;28;20728;-66
2022/05/17 02:55:52;;;;;;;15.93;3.10;;;;;;;17.45;52.93;101394.13;2080453;28;20185;-65
2022/05/17 02:56:52;;;;;;;9.80;3.20;;;;;;;17.46;52.96;101397.72;2080994;28;20188;-66
2022/05/17 02:57:53;;;;;;;10.43;3.47;;;;;;;17.47;53.25;101396.47;2080668;28;20181;-66
2022/05/17 02:58:53;;;;;;;6.83;2.80;;;;;;;17.50;53.12;101399.13;2080795;28;20192;-66
2022/05/17 02:59:54;;;;;;;11.07;3.20;;;;;;;17.52;52.86;101402.28;2080853;28;20177;-66
2022/05/17 03:00:54;;;;;;;11.20;3.20;;;;;;;17.53;53.07;101404.59;2080678;28;20232;-66
2022/05/17 03:01:55;;;;;;;11.93;3.00;;;;;;;17.26;52.98;101370.81;2080215;28;20563;-65
2022/05/17 03:02:55;;;;;;;16.60;3.77;;;;;;;17.50;53.07;101406.78;2079597;28;20263;-65
2022/05/17 03:03:56;;;;;;;13.23;3.40;;;;;;;17.52;53.17;101407.09;2080210;28;20259;-65
2022/05/17 03:04:56;;;;;;;15.00;3.50;;;;;;;17.53;53.08;101407.38;2080503;28;20192;-65
2022/05/17 03:05:57;;;;;;;13.30;3.97;;;;;;;17.54;53.06;101408.19;2080523;28;20548;-66
2022/05/17 03:06:58;;;;;;;9.17;3.77;;;;;;;17.57;52.75;101409.28;2080832;28;20235;-66
2022/05/17 03:07:58;;;;;;;13.30;3.07;;;;;;;17.58;53.19;101406.78;2081013;28;20178;-65
2022/05/17 03:08:59;;;;;;;15.47;3.60;;;;;;;17.58;52.84;101409.59;2080229;28;20255;-66
2022/05/17 03:09:59;;;;;;;12.50;4.40;;;;;;;17.54;53.32;101408.19;2080832;28;20195;-66
2022/05/17 03:11:00;;;;;;;34.47;5.67;;;;;;;17.53;53.47;101410.19;2080128;28;20255;-66
2022/05/17 03:12:02;;;;;;;29.27;5.77;;;;;;;17.53;53.08;101415.78;2080308;28;20182;-65
2022/05/17 03:13:03;;;;;;;27.20;6.07;;;;;;;17.48;53.41;101407.22;2080185;28;20276;-65
2022/05/17 03:14:04;;;;;;;26.17;5.27;;;;;;;16.74;53.66;101300.88;2079855;28;20431;-66
2022/05/17 03:15:05;;;;;;;23.87;4.90;;;;;;;17.49;53.71;101410.81;2080579;28;20193;-66
2022/05/17 03:16:06;;;;;;;29.23;5.10;;;;;;;17.52;53.89;101407.09;2080314;28;20259;-65
2022/05/17 03:17:14;;;;;;;20.73;5.00;;;;;;;17.51;53.91;101403.47;2080940;28;20942;-65
2022/05/17 03:18:14;;;;;;;23.83;5.03;;;;;;;17.52;53.84;101403.03;2080806;28;20180;-66
2022/05/17 03:19:16;;;;;;;16.93;4.60;;;;;;;17.53;53.74;101407.38;2080178;28;20416;-66
2022/05/17 03:20:17;;;;;;;12.67;4.23;;;;;;;17.56;54.09;101404.94;2080811;28;20173;-66
2022/05/17 03:21:17;;;;;;;14.50;3.80;;;;;;;17.56;54.28;101408.50;2080829;28;20420;-66
2022/05/17 03:22:17;;;;;;;12.50;3.57;;;;;;;17.56;54.80;101402.88;2080708;28;20303;-66
2022/05/17 03:23:18;;;;;;;5.63;2.83;;;;;;;17.55;55.47;101406.94;2079477;28;20237;-66
2022/05/17 03:24:18;;;;;;;5.97;2.83;;;;;;;17.53;56.19;101407.38;2079960;28;20165;-65
2022/05/17 03:25:19;;;;;;;7.97;2.87;;;;;;;16.79;57.15;101291.88;2080475;28;20178;-65
2022/05/17 03:26:21;;;;;;;6.40;3.27;;;;;;;17.31;57.81;101403.84;2080697;28;20256;-66
2022/05/17 03:27:21;;;;;;;6.23;3.20;;;;;;;17.49;58.32;101408.03;2080868;28;20446;-66
2022/05/17 03:28:22;;;;;;;8.93;2.90;;;;;;;17.36;59.52;101396.88;2080855;28;20452;-66
2022/05/17 03:29:22;;;;;;;7.80;3.30;;;;;;;17.35;59.71;101403.69;2080122;28;20189;-65
2022/05/17 03:30:23;;;;;;;5.97;2.90;;;;;;;17.26;60.28;101414.88;2080835;28;20565;-65
2022/05/17 03:31:24;;;;;;;7.27;3.33;;;;;;;17.24;60.31;101408.94;2080709;28;20182;-65
2022/05/17 03:32:24;;;;;;;7.93;3.30;;;;;;;16.92;60.08;101342.97;2080860;28;20930;-65
2022/05/17 03:33:25;;;;;;;8.17;2.90;;;;;;;17.32;60.23;101408.19;2079485;28;20185;-66
2022/05/17 03:34:25;;;;;;;4.43;2.73;;;;;;;17.37;59.94;101409.63;2080151;28;20186;-65
2022/05/17 03:35:26;;;;;;;4.57;2.63;;;;;;;17.46;60.06;101406.91;2080177;28;20173;-65
2022/05/17 03:36:26;;;;;;;5.43;3.13;;;;;;;17.45;59.83;101415.78;2080916;28;20208;-66
2022/05/17 03:37:27;;;;;;;4.33;3.20;;;;;;;17.48;60.12;101409.22;2080629;28;20619;-66
2022/05/17 03:38:28;;;;;;;5.77;2.97;;;;;;;17.46;59.91;101408.94;2080504;28;20251;-65
2022/05/17 03:39:28;;;;;;;7.73;3.13;;;;;;;17.46;60.16;101414.53;2080086;28;20192;-66
2022/05/17 03:40:29;;;;;;;4.40;2.73;;;;;;;17.51;60.04;101408.31;2080644;28;20703;-65
2022/05/17 03:41:29;;;;;;;5.50;3.37;;;;;;;17.54;60.23;101419.38;2080694;28;20677;-65
2022/05/17 03:42:30;;;;;;;6.97;3.30;;;;;;;17.52;60.03;101414.25;2080948;28;20548;-66
2022/05/17 03:43:31;;;;;;;6.20;2.90;;;;;;;17.48;60.30;101414.84;2079521;28;20657;-66
2022/05/17 03:44:31;;;;;;;6.47;3.20;;;;;;;17.47;61.02;101419.69;2079864;28;20705;-65
2022/05/17 03:45:32;;;;;;;5.33;3.20;;;;;;;17.18;61.18;101383.56;2080468;28;20195;-65
2022/05/17 03:46:32;;;;;;;5.10;3.00;;;;;;;17.39;61.85;101417.63;2080602;28;20212;-66
2022/05/17 03:47:33;;;;;;;5.13;3.30;;;;;;;16.59;62.16;101304.69;2080572;28;20245;-65
2022/05/17 03:48:33;;;;;;;5.00;3.40;;;;;;;17.38;62.39;101425.22;2080865;28;20189;-65
2022/05/17 03:49:36;;;;;;;6.37;3.20;;;;;;;17.45;62.48;101432.59;2080123;28;20207;-65
2022/05/17 03:50:37;;;;;;;6.63;3.30;;;;;;;17.51;62.24;101420.31;2081744;28;20213;-65
2022/05/17 03:51:37;;;;;;;11.03;3.20;;;;;;;17.55;62.20;101420.19;2082244;28;20481;-65
2022/05/17 03:52:38;;;;;;;4.43;3.00;;;;;;;17.63;61.80;101421.44;2082221;28;20254;-65
2022/05/17 03:53:38;;;;;;;10.23;2.90;;;;;;;17.69;61.78;101426.00;2081761;28;20192;-65
2022/05/17 03:54:39;;;;;;;7.47;3.20;;;;;;;17.73;61.55;101421.78;2081652;28;20179;-65
2022/05/17 03:55:41;;;;;;;8.40;3.43;;;;;;;17.75;61.34;101429.75;2081778;28;20266;-65
2022/05/17 03:56:42;;;;;;;5.93;3.10;;;;;;;17.79;61.38;101427.59;2082331;28;20647;-65
2022/05/17 03:57:42;;;;;;;6.90;3.20;;;;;;;17.83;61.67;101425.44;2082178;28;20894;-66
2022/05/17 03:58:43;;;;;;;7.10;3.20;;;;;;;17.85;61.50;101425.72;2082451;28;20211;-65
2022/05/17 03:59:44;;;;;;;7.93;3.67;;;;;;;17.88;61.54;101428.38;2082023;28;20251;-65
2022/05/17 04:00:44;;;;;;;9.17;3.40;;;;;;;17.93;61.22;101441.03;2081875;28;20414;-65
2022/05/17 04:01:45;;;;;;;6.97;3.30;;;;;;;17.98;61.29;101432.78;2082513;28;20751;-66
2022/05/17 04:02:45;;;;;;;10.40;3.37;;;;;;;18.02;61.14;101436.22;2081744;28;20180;-66
2022/05/17 04:03:46;;;;;;;8.77;3.10;;;;;;;17.17;61.09;101300.00;2081451;28;20650;-66
2022/05/17 04:04:46;;;;;;;7.33;2.90;;;;;;;17.85;60.82;101406.09;2081936;28;20188;-65
2022/05/17 04:05:47;;;;;;;6.20;3.10;;;;;;;18.14;61.02;101435.28;2081786;28;20185;-65
2022/05/17 04:06:47;;;;;;;9.20;3.37;;;;;;;18.21;60.81;101437.03;2082367;28;20256;-63
2022/05/17 04:07:48;;;;;;;5.20;3.10;;;;;;;18.13;60.66;101438.59;2083961;28;20665;-64
2022/05/17 04:08:50;;;;;;;6.20;3.20;;;;;;;18.26;60.40;101433.59;2080168;28;20212;-63
2022/05/17 04:09:50;;;;;;;5.67;3.43;;;;;;;18.26;60.32;101439.22;2080425;28;20376;-63
2022/05/17 04:10:51;;;;;;;8.10;3.00;;;;;;;18.28;60.22;101437.50;2081675;28;20432;-63
2022/05/17 04:11:51;;;;;;;8.83;3.43;;;;;;;18.28;60.21;101437.50;2082148;28;20183;-63
2022/05/17 04:12:52;;;;;;;13.57;2.87;;;;;;;18.27;59.88;101442.81;2080909;28;20646;-63
2022/05/17 04:13:52;;;;;;;10.60;3.10;;;;;;;18.26;59.40;101433.59;2080463;28;20181;-63
2022/05/17 04:14:53;;;;;;;13.50;4.00;;;;;;;18.32;59.32;101437.38;2072738;28;20572;-63
2022/05/17 04:15:54;;;;;;;8.63;3.50;;;;;;;18.42;59.12;101435.38;2080743;28;20187;-63
2022/05/17 04:16:54;;;;;;;9.40;3.20;;;;;;;18.47;58.67;101443.94;2081979;28;20455;-63
2022/05/17 04:17:55;;;;;;;9.50;3.47;;;;;;;18.50;58.67;101436.63;2081950;28;20265;-64
2022/05/17 04:18:55;;;;;;;9.43;3.40;;;;;;;18.54;58.89;101442.88;2081311;28;20189;-63
2022/05/17 04:19:58;;;;;;;10.27;3.57;;;;;;;18.36;58.69;101424.00;2081249;28;20197;-63
2022/05/17 04:21:04;;;;;;;7.33;3.10;;;;;;;18.63;58.58;101449.25;2081536;28;20295;-63
2022/05/17 04:22:09;;;;;;;6.40;2.90;;;;;;;18.62;58.21;101447.69;2081935;28;20423;-63
2022/05/17 04:23:10;;;;;;;6.83;2.53;;;;;;;18.62;57.08;101449.75;2080965;28;20434;-63
2022/05/17 04:24:11;;;;;;;6.23;2.63;;;;;;;18.59;56.46;101439.44;2080893;28;20932;-62
2022/05/17 04:25:13;;;;;;;6.60;2.90;;;;;;;18.71;56.02;101449.72;2081108;28;20199;-62
2022/05/17 04:26:14;;;;;;;7.40;2.50;;;;;;;18.79;55.90;101453.78;2081593;28;20421;-63
2022/05/17 04:27:14;;;;;;;5.00;2.50;;;;;;;18.83;56.04;101449.56;2080235;28;20435;-62
2022/05/17 04:28:15;;;;;;;6.40;2.60;;;;;;;18.86;56.11;101450.66;2081780;28;20765;-63
2022/05/17 04:29:16;;;;;;;4.77;2.40;;;;;;;18.85;56.07;101454.72;2081322;28;20180;-63
2022/05/17 04:30:17;;;;;;;3.63;2.40;;;;;;;18.87;55.73;101453.00;2081289;28;20412;-63
2022/05/17 04:31:18;;;;;;;4.47;2.87;;;;;;;18.92;55.81;101457.19;2081428;28;20177;-63
2022/05/17 04:32:18;;;;;;;7.27;3.03;;;;;;;18.98;55.82;101456.09;2081758;28;20530;-63
2022/05/17 04:33:19;;;;;;;3.97;2.60;;;;;;;19.05;55.90;101457.81;2081007;28;20191;-63
2022/05/17 04:34:19;;;;;;;5.47;2.83;;;;;;;19.09;55.59;101452.81;2080706;28;20188;-63
2022/05/17 04:35:20;;;;;;;10.87;4.53;;;;;;;19.15;55.30;101451.72;2080617;28;20194;-64
2022/05/17 04:36:21;;;;;;;7.47;3.40;;;;;;;19.19;55.24;101446.69;2078974;28;20205;-63
2022/05/17 04:37:22;;;;;;;7.13;2.50;;;;;;;18.26;54.68;101318.56;2080638;28;20561;-63
2022/05/17 04:38:22;;;;;;;5.73;2.60;;;;;;;18.71;54.12;101390.75;2080733;28;20184;-63
2022/05/17 04:39:24;;;;;;;8.17;2.63;;;;;;;19.12;53.05;101433.00;2081236;28;20667;-63
2022/05/17 04:40:24;;;;;;;4.80;2.83;;;;;;;19.23;52.37;101441.72;2078298;28;20196;-63
2022/05/17 04:41:25;;;;;;;6.73;3.30;;;;;;;19.31;52.47;101436.56;2078211;28;20446;-63
2022/05/17 04:42:26;;;;;;;8.57;5.07;;;;;;;18.94;52.99;101384.50;2081614;28;20672;-63
2022/05/17 04:43:26;;;;;;;7.70;3.57;;;;;;;19.61;54.82;101446.78;2080757;28;20177;-65
2022/05/17 04:44:27;;;;;;;4.47;2.60;;;;;;;19.82;55.63;101424.03;2080499;28;20210;-65
2022/05/17 04:45:28;;;;;;;6.57;3.70;;;;;;;20.14;52.60;101447.78;2081292;28;20189;-65
2022/05/17 04:46:28;;;;;;;6.77;3.10;;;;;;;20.22;53.04;101451.78;2081463;28;20427;-65
2022/05/17 04:47:30;;;;;;;3.57;2.20;;;;;;;19.99;52.69;101411.09;2081498;28;20187;-65